createdAt,value
2018-05-29T00:01:48.942Z,3.47
2018-05-29T00:04:18.040Z,2.97
2018-05-29T00:06:47.081Z,3.13
2018-05-29T00:09:16.122Z,3.07
2018-05-29T00:11:45.377Z,2.63
2018-05-29T00:14:14.388Z,2.90
2018-05-29T00:16:43.524Z,2.50
2018-05-29T00:19:12.565Z,2.70
2018-05-29T00:21:41.696Z,2.87
2018-05-29T00:24:10.762Z,2.97
2018-05-29T00:26:39.751Z,2.60
2018-05-29T00:29:08.814Z,2.87
2018-05-29T00:31:37.845Z,3.30
2018-05-29T00:34:06.823Z,2.70
2018-05-29T00:36:35.879Z,2.90
2018-05-29T00:39:04.978Z,3.00
2018-05-29T00:41:34.057Z,3.07
2018-05-29T00:44:03.762Z,3.63
2018-05-29T00:46:32.729Z,3.23
2018-05-29T00:49:01.769Z,3.40
2018-05-29T00:51:30.784Z,3.40
2018-05-29T00:53:59.669Z,3.20
2018-05-29T00:56:28.697Z,3.13
2018-05-29T00:58:57.682Z,2.83
2018-05-29T01:01:26.756Z,3.13
2018-05-29T01:03:55.705Z,2.50
2018-05-29T01:06:24.900Z,3.13
2018-05-29T01:08:54.033Z,3.10
2018-05-29T01:11:22.940Z,2.70
2018-05-29T01:13:51.765Z,3.10
2018-05-29T01:16:20.701Z,3.30
2018-05-29T01:18:49.705Z,2.83
2018-05-29T01:21:18.652Z,3.10
2018-05-29T01:23:47.742Z,2.87
2018-05-29T01:26:16.943Z,3.13
2018-05-29T01:28:46.071Z,3.40
2018-05-29T01:31:15.057Z,3.20
2018-05-29T01:33:44.082Z,3.60
2018-05-29T01:36:13.220Z,2.83
2018-05-29T01:38:42.037Z,2.87
2018-05-29T01:41:11.140Z,3.30
2018-05-29T01:43:39.978Z,2.97
2018-05-29T01:46:08.993Z,3.47
2018-05-29T01:48:38.037Z,3.10
2018-05-29T01:51:07.180Z,3.30
2018-05-29T01:53:36.359Z,3.63
2018-05-29T01:56:05.597Z,3.60
2018-05-29T01:58:34.809Z,4.00
2018-05-29T02:01:03.817Z,3.53
2018-05-29T02:03:32.809Z,3.83
2018-05-29T02:06:01.730Z,3.60
2018-05-29T02:08:30.801Z,3.30
2018-05-29T02:10:59.857Z,3.10
2018-05-29T02:13:28.849Z,3.30
2018-05-29T02:15:57.687Z,3.50
2018-05-29T02:18:27.353Z,3.50
2018-05-29T02:21:06.789Z,3.30
2018-05-29T02:23:53.008Z,2.90
2018-05-29T02:26:27.027Z,2.77
2018-05-29T02:28:56.015Z,2.50
2018-05-29T02:31:25.143Z,2.60
2018-05-29T02:33:54.024Z,2.23
2018-05-29T02:36:22.967Z,2.27
2018-05-29T02:38:51.930Z,2.70
2018-05-29T02:41:20.956Z,2.67
2018-05-29T02:43:49.986Z,2.13
2018-05-29T02:46:18.941Z,2.23
2018-05-29T02:48:47.876Z,2.30
2018-05-29T02:51:16.828Z,2.50
2018-05-29T02:53:46.037Z,2.23
2018-05-29T02:56:15.290Z,2.50
2018-05-29T02:58:44.147Z,2.90
2018-05-29T03:01:13.610Z,2.30
2018-05-29T03:03:42.537Z,2.93
2018-05-29T03:06:11.510Z,2.57
2018-05-29T03:08:40.694Z,2.50
2018-05-29T03:11:09.769Z,3.57
2018-05-29T03:13:38.971Z,3.40
2018-05-29T03:16:08.100Z,3.93
2018-05-29T03:18:37.033Z,2.80
2018-05-29T03:21:06.492Z,2.70
2018-05-29T03:23:35.784Z,2.50
2018-05-29T03:26:05.270Z,3.00
2018-05-29T03:28:34.191Z,3.03
2018-05-29T03:31:03.175Z,3.97
2018-05-29T03:33:32.232Z,3.10
2018-05-29T03:36:01.100Z,3.40
2018-05-29T03:38:30.088Z,3.17
2018-05-29T03:40:59.081Z,2.83
2018-05-29T03:43:28.122Z,2.73
2018-05-29T03:45:57.082Z,2.47
2018-05-29T03:48:26.156Z,2.40
2018-05-29T03:50:55.216Z,2.97
2018-05-29T03:53:24.321Z,2.50
2018-05-29T03:55:53.143Z,2.50
2018-05-29T03:58:22.251Z,2.57
2018-05-29T04:00:51.283Z,2.80
2018-05-29T04:03:20.370Z,2.40
2018-05-29T04:05:50.504Z,3.23
2018-05-29T04:08:19.909Z,2.53
2018-05-29T04:10:49.005Z,2.30
2018-05-29T04:13:17.958Z,3.07
2018-05-29T04:15:46.884Z,2.87
2018-05-29T04:18:16.440Z,2.87
2018-05-29T04:20:45.481Z,2.30
2018-05-29T04:23:14.533Z,2.73
2018-05-29T04:28:08.683Z,8.70
2018-05-29T04:30:37.677Z,2.60
2018-05-29T04:33:06.916Z,3.00
2018-05-29T04:35:36.079Z,3.17
2018-05-29T04:38:05.384Z,2.93
2018-05-29T04:40:34.287Z,3.03
2018-05-29T04:43:03.304Z,3.03
2018-05-29T04:45:32.304Z,3.53
2018-05-29T04:48:01.397Z,3.07
2018-05-29T04:50:30.559Z,3.37
2018-05-29T04:52:59.540Z,3.20
2018-05-29T04:55:28.700Z,3.23
2018-05-29T04:57:57.691Z,3.00
2018-05-29T05:00:26.733Z,2.77
2018-05-29T05:02:55.782Z,3.63
2018-05-29T05:05:24.877Z,3.47
2018-05-29T05:07:53.795Z,9.57
2018-05-29T05:10:22.960Z,4.67
2018-05-29T05:12:52.065Z,3.13
2018-05-29T05:15:21.185Z,2.93
2018-05-29T05:17:50.099Z,3.90
2018-05-29T05:20:19.008Z,3.20
2018-05-29T05:22:51.112Z,3.23
2018-05-29T05:25:20.063Z,2.90
2018-05-29T05:27:49.306Z,2.90
2018-05-29T05:30:18.164Z,2.67
2018-05-29T05:32:47.245Z,3.03
2018-05-29T05:35:16.237Z,2.83
2018-05-29T05:37:45.143Z,2.87
2018-05-29T05:40:14.063Z,3.00
2018-05-29T05:42:42.921Z,3.03
2018-05-29T05:45:12.105Z,3.07
2018-05-29T05:47:41.183Z,3.30
2018-05-29T05:50:10.404Z,2.80
2018-05-29T05:52:39.486Z,2.90
2018-05-29T05:55:08.661Z,3.10
2018-05-29T05:57:38.526Z,3.00
2018-05-29T06:00:07.858Z,3.07
2018-05-29T06:02:37.569Z,3.27
2018-05-29T06:05:06.767Z,3.17
2018-05-29T06:07:35.818Z,3.27
2018-05-29T06:10:05.000Z,3.13
2018-05-29T06:12:33.866Z,3.27
2018-05-29T06:15:02.772Z,3.70
2018-05-29T06:17:31.862Z,3.83
2018-05-29T06:20:00.890Z,3.30
2018-05-29T06:22:30.032Z,3.70
2018-05-29T06:24:59.436Z,2.87
2018-05-29T06:27:28.617Z,3.33
2018-05-29T06:29:57.744Z,3.37
2018-05-29T06:32:26.793Z,2.90
2018-05-29T06:34:55.809Z,3.57
2018-05-29T06:37:24.748Z,3.50
2018-05-29T06:39:53.884Z,3.40
2018-05-29T06:42:22.958Z,3.40
2018-05-29T06:44:52.051Z,3.53
2018-05-29T06:47:21.226Z,3.67
2018-05-29T06:49:50.674Z,3.60
2018-05-29T06:52:19.871Z,3.93
2018-05-29T06:54:49.232Z,3.40
2018-05-29T06:57:18.441Z,3.43
2018-05-29T06:59:47.587Z,3.70
2018-05-29T07:02:16.550Z,3.23
2018-05-29T07:04:45.720Z,3.60
2018-05-29T07:07:14.754Z,3.60
2018-05-29T07:09:43.800Z,3.60
2018-05-29T07:12:12.718Z,3.47
2018-05-29T07:14:41.806Z,4.20
2018-05-29T07:17:11.022Z,3.47
2018-05-29T07:19:39.962Z,3.03
2018-05-29T07:22:08.969Z,3.73
2018-05-29T07:24:38.056Z,3.27
2018-05-29T07:27:07.185Z,3.23
2018-05-29T07:29:36.428Z,3.40
2018-05-29T07:32:05.428Z,3.17
2018-05-29T07:34:34.403Z,3.30
2018-05-29T07:37:03.497Z,3.00
2018-05-29T07:39:32.933Z,3.23
2018-05-29T07:42:01.941Z,3.23
2018-05-29T07:44:36.216Z,3.20
2018-05-29T07:47:05.260Z,3.70
2018-05-29T07:49:34.233Z,3.07
2018-05-29T07:52:03.561Z,3.30
2018-05-29T07:54:32.816Z,3.30
2018-05-29T07:57:01.855Z,3.13
2018-05-29T07:59:30.820Z,3.20
2018-05-29T08:01:59.900Z,3.70
2018-05-29T08:04:29.045Z,3.27
2018-05-29T08:06:58.502Z,3.00
2018-05-29T08:09:27.912Z,3.30
2018-05-29T08:11:57.021Z,3.50
2018-05-29T08:14:25.972Z,3.20
2018-05-29T08:16:55.158Z,2.97
2018-05-29T08:19:24.160Z,3.20
2018-05-29T08:21:53.114Z,3.10
2018-05-29T08:24:22.280Z,2.90
2018-05-29T08:26:51.577Z,2.93
2018-05-29T08:29:21.880Z,3.63
2018-05-29T08:31:51.310Z,3.20
2018-05-29T08:34:20.488Z,2.90
2018-05-29T08:36:49.813Z,3.10
2018-05-29T08:39:19.062Z,2.60
2018-05-29T08:41:48.224Z,3.40
2018-05-29T08:44:17.482Z,3.60
2018-05-29T08:46:46.570Z,3.10
2018-05-29T08:49:15.870Z,3.00
2018-05-29T08:51:45.120Z,3.67
2018-05-29T08:54:14.088Z,3.30
2018-05-29T08:56:43.363Z,2.73
2018-05-29T08:59:12.599Z,3.60
2018-05-29T09:01:41.586Z,2.90
2018-05-29T09:04:10.808Z,3.10
2018-05-29T09:06:39.942Z,3.43
2018-05-29T09:09:09.046Z,3.60
2018-05-29T09:11:38.284Z,3.17
2018-05-29T09:14:07.554Z,3.30
2018-05-29T09:16:36.890Z,3.13
2018-05-29T09:19:06.060Z,3.40
2018-05-29T09:21:35.250Z,3.20
2018-05-29T09:24:04.308Z,3.00
2018-05-29T09:26:33.200Z,2.83
2018-05-29T09:29:02.232Z,2.97
2018-05-29T09:31:31.350Z,3.07
2018-05-29T09:34:00.470Z,2.73
2018-05-29T09:36:29.571Z,3.00
2018-05-29T09:38:58.812Z,3.33
2018-05-29T09:41:27.915Z,3.00
2018-05-29T09:43:57.232Z,2.90
2018-05-29T09:46:26.567Z,2.90
2018-05-29T09:48:55.857Z,3.00
2018-05-29T09:51:24.954Z,2.93
2018-05-29T09:53:54.168Z,2.60
2018-05-29T09:56:23.357Z,2.50
2018-05-29T09:58:52.444Z,2.70
2018-05-29T10:01:21.541Z,3.27
2018-05-29T10:03:50.745Z,2.80
2018-05-29T10:06:19.838Z,3.03
2018-05-29T10:08:48.996Z,3.57
2018-05-29T10:11:18.488Z,3.27
2018-05-29T10:13:47.595Z,4.00
2018-05-29T10:16:16.494Z,3.30
2018-05-29T10:18:45.684Z,3.90
2018-05-29T10:21:14.821Z,4.10
2018-05-29T10:23:43.760Z,3.83
2018-05-29T10:26:12.762Z,4.03
2018-05-29T10:28:41.850Z,3.83
2018-05-29T10:31:11.006Z,4.10
2018-05-29T10:33:40.254Z,3.90
2018-05-29T10:36:09.570Z,4.00
2018-05-29T10:38:38.797Z,4.07
2018-05-29T10:41:07.960Z,3.87
2018-05-29T10:43:37.903Z,4.00
2018-05-29T10:46:07.227Z,3.40
2018-05-29T10:48:36.281Z,3.90
2018-05-29T10:51:05.520Z,4.10
2018-05-29T10:53:34.807Z,4.03
2018-05-29T10:56:04.019Z,3.67
2018-05-29T10:58:33.252Z,3.90
2018-05-29T11:01:02.418Z,3.93
2018-05-29T11:03:31.797Z,4.30
2018-05-29T11:06:01.134Z,3.90
2018-05-29T11:08:30.297Z,4.67
2018-05-29T11:10:59.576Z,4.33
2018-05-29T11:13:28.628Z,3.40
2018-05-29T11:15:57.785Z,4.27
2018-05-29T11:18:26.844Z,3.80
2018-05-29T11:20:55.801Z,3.60
2018-05-29T11:23:25.893Z,3.53
2018-05-29T11:25:54.710Z,3.80
2018-05-29T11:28:23.812Z,4.20
2018-05-29T11:30:52.944Z,3.90
2018-05-29T11:33:22.104Z,4.10
2018-05-29T11:35:51.447Z,4.53
2018-05-29T11:38:20.452Z,4.77
2018-05-29T11:40:49.346Z,4.80
2018-05-29T11:43:18.286Z,4.73
2018-05-29T11:45:47.308Z,4.53
2018-05-29T11:48:16.685Z,4.93
2018-05-29T11:50:46.049Z,4.77
2018-05-29T11:53:15.225Z,4.43
2018-05-29T11:55:44.433Z,4.70
2018-05-29T11:58:13.413Z,4.50
2018-05-29T12:00:42.732Z,4.17
2018-05-29T12:03:11.668Z,4.67
2018-05-29T12:05:40.593Z,5.20
2018-05-29T12:08:09.474Z,4.90
2018-05-29T12:10:38.644Z,5.00
2018-05-29T12:13:07.679Z,5.50
2018-05-29T12:15:36.974Z,4.93
2018-05-29T12:18:06.299Z,5.13
2018-05-29T12:20:35.288Z,5.33
2018-05-29T12:23:04.541Z,4.93
2018-05-29T12:25:33.677Z,5.10
2018-05-29T12:28:03.044Z,4.90
2018-05-29T12:30:31.948Z,5.20
2018-05-29T12:33:01.260Z,4.30
2018-05-29T12:35:30.146Z,4.60
2018-05-29T12:37:59.442Z,4.33
2018-05-29T12:40:28.487Z,4.93
2018-05-29T12:42:57.709Z,4.07
2018-05-29T12:45:27.242Z,4.77
2018-05-29T12:47:56.409Z,4.93
2018-05-29T12:50:25.672Z,4.60
2018-05-29T12:52:54.694Z,4.57
2018-05-29T12:55:24.056Z,5.17
2018-05-29T12:57:52.768Z,4.20
2018-05-29T13:00:21.557Z,4.63
2018-05-29T13:02:50.758Z,4.20
2018-05-29T13:05:20.113Z,4.27
2018-05-29T13:07:49.238Z,4.73
2018-05-29T13:10:18.303Z,4.63
2018-05-29T13:12:47.460Z,4.63
2018-05-29T13:15:16.430Z,4.97
2018-05-29T13:17:45.597Z,4.70
2018-05-29T13:20:14.847Z,5.00
2018-05-29T13:22:44.117Z,5.10
2018-05-29T13:25:13.128Z,4.90
2018-05-29T13:27:43.319Z,5.00
2018-05-29T13:30:12.224Z,4.97
2018-05-29T13:32:41.301Z,4.50
2018-05-29T13:35:10.383Z,4.60
2018-05-29T13:37:39.276Z,5.80
2018-05-29T13:40:08.209Z,5.20
2018-05-29T13:42:37.201Z,4.97
2018-05-29T13:45:06.165Z,5.33
2018-05-29T13:47:35.543Z,4.97
2018-05-29T13:50:04.578Z,5.13
2018-05-29T13:52:33.648Z,5.57
2018-05-29T13:55:02.662Z,5.03
2018-05-29T13:57:31.903Z,5.20
2018-05-29T14:00:00.658Z,5.33
2018-05-29T14:02:29.624Z,4.90
2018-05-29T14:04:58.619Z,5.20
2018-05-29T14:07:27.521Z,4.80
2018-05-29T14:09:56.866Z,4.30
2018-05-29T14:12:25.861Z,6.30
2018-05-29T14:14:55.073Z,4.57
2018-05-29T14:17:24.371Z,5.10
2018-05-29T14:19:53.208Z,5.47
2018-05-29T14:22:22.252Z,5.90
2018-05-29T14:24:51.240Z,5.33
2018-05-29T14:27:20.240Z,4.97
2018-05-29T14:29:49.496Z,5.30
2018-05-29T14:32:18.229Z,5.33
2018-05-29T14:34:46.933Z,5.43
2018-05-29T14:37:15.905Z,4.70
2018-05-29T14:39:44.903Z,4.57
2018-05-29T14:42:13.555Z,4.63
2018-05-29T14:44:42.531Z,4.87
2018-05-29T14:47:11.472Z,5.53
2018-05-29T14:49:40.412Z,4.43
2018-05-29T14:52:09.490Z,4.27
2018-05-29T14:54:38.309Z,4.40
2018-05-29T14:57:07.133Z,5.47
2018-05-29T14:59:36.245Z,4.37
2018-05-29T15:02:05.004Z,4.10
2018-05-29T15:04:33.712Z,4.23
2018-05-29T15:07:02.714Z,4.13
2018-05-29T15:09:31.479Z,4.50
2018-05-29T15:12:00.398Z,5.07
2018-05-29T15:14:29.280Z,4.93
2018-05-29T15:16:58.182Z,5.13
2018-05-29T15:19:26.863Z,5.35
2018-05-29T15:21:55.682Z,5.03
2018-05-29T15:24:24.386Z,5.50
2018-05-29T15:26:53.113Z,4.60
2018-05-29T15:29:21.906Z,4.63
2018-05-29T15:31:50.913Z,4.60
2018-05-29T15:34:19.790Z,4.73
2018-05-29T15:36:48.595Z,5.00
2018-05-29T15:39:17.457Z,4.43
2018-05-29T15:41:46.215Z,4.50
2018-05-29T15:44:15.023Z,4.10
2018-05-29T15:46:43.880Z,5.07
2018-05-29T15:49:12.948Z,3.83
2018-05-29T15:51:41.693Z,4.60
2018-05-29T15:54:10.632Z,4.90
2018-05-29T15:56:39.459Z,4.80
2018-05-29T15:59:08.367Z,4.80
2018-05-29T16:01:37.132Z,4.33
2018-05-29T16:04:05.942Z,4.13
2018-05-29T16:06:34.793Z,4.23
2018-05-29T16:09:03.879Z,3.47
2018-05-29T16:11:32.701Z,3.33
2018-05-29T16:14:01.449Z,3.63
2018-05-29T16:16:30.230Z,3.70
2018-05-29T16:18:58.961Z,4.60
2018-05-29T16:21:27.700Z,4.10
2018-05-29T16:23:56.418Z,3.63
2018-05-29T16:26:25.276Z,3.30
2018-05-29T16:28:54.041Z,3.47
2018-05-29T16:31:22.985Z,3.50
2018-05-29T16:33:51.682Z,4.17
2018-05-29T16:36:20.822Z,3.77
2018-05-29T16:38:49.755Z,3.47
2018-05-29T16:41:18.433Z,4.00
2018-05-29T16:43:47.170Z,4.40
2018-05-29T16:46:15.861Z,3.40
2018-05-29T16:48:44.781Z,3.60
2018-05-29T16:51:13.522Z,3.80
2018-05-29T16:53:42.365Z,3.90
2018-05-29T16:56:11.072Z,4.00
2018-05-29T16:58:40.172Z,4.03
2018-05-29T17:01:08.972Z,3.90
2018-05-29T17:03:37.733Z,4.13
2018-05-29T17:06:06.825Z,3.90
2018-05-29T17:08:35.740Z,4.67
2018-05-29T17:11:05.013Z,3.23
2018-05-29T17:13:33.784Z,6.50
2018-05-29T17:16:02.824Z,3.70
2018-05-29T17:18:31.498Z,4.30
2018-05-29T17:21:00.181Z,4.30
2018-05-29T17:23:28.913Z,4.20
2018-05-29T17:25:57.729Z,4.10
2018-05-29T17:28:26.503Z,5.23
2018-05-29T17:30:55.457Z,4.00
2018-05-29T17:33:24.552Z,5.23
2018-05-29T17:35:53.241Z,3.77
2018-05-29T17:38:22.030Z,3.93
2018-05-29T17:40:50.820Z,4.80
2018-05-29T17:43:19.534Z,11.33
2018-05-29T17:45:48.197Z,4.37
2018-05-29T17:48:16.968Z,7.03
2018-05-29T17:50:45.704Z,7.63
2018-05-29T17:53:14.470Z,5.67
2018-05-29T17:55:43.145Z,3.80
2018-05-29T17:58:12.151Z,4.63
2018-05-29T18:00:40.897Z,4.90
2018-05-29T18:03:09.626Z,4.80
2018-05-29T18:05:38.355Z,4.53
2018-05-29T18:08:07.096Z,4.80
2018-05-29T18:10:35.898Z,5.40
2018-05-29T18:13:04.634Z,8.73
2018-05-29T18:15:33.322Z,5.73
2018-05-29T18:18:02.034Z,6.13
2018-05-29T18:20:30.777Z,5.40
2018-05-29T18:22:59.577Z,5.50
2018-05-29T18:25:28.366Z,5.90
2018-05-29T18:27:57.188Z,4.97
2018-05-29T18:30:25.976Z,6.87
2018-05-29T18:32:55.509Z,6.80
2018-05-29T18:35:24.346Z,4.30
2018-05-29T18:37:53.599Z,5.37
2018-05-29T18:40:22.322Z,5.30
2018-05-29T18:42:50.991Z,7.10
2018-05-29T18:45:19.734Z,9.37
2018-05-29T18:47:48.624Z,5.10
2018-05-29T18:50:17.495Z,4.80
2018-05-29T18:52:46.433Z,6.17
2018-05-29T18:55:15.628Z,13.70
2018-05-29T18:57:44.319Z,11.43
2018-05-29T19:00:13.082Z,8.70
2018-05-29T19:02:41.797Z,10.73
2018-05-29T19:05:10.653Z,10.30
2018-05-29T19:07:39.409Z,7.87
2018-05-29T19:10:08.272Z,5.17
2018-05-29T19:12:37.204Z,7.30
2018-05-29T19:15:05.913Z,5.53
2018-05-29T19:17:34.616Z,8.57
2018-05-29T19:20:03.364Z,6.50
2018-05-29T19:22:32.197Z,4.13
2018-05-29T19:25:01.044Z,5.13
2018-05-29T19:27:29.995Z,4.77
2018-05-29T19:29:58.689Z,6.37
2018-05-29T19:32:27.486Z,5.70
2018-05-29T19:34:56.172Z,7.20
2018-05-29T19:37:24.913Z,6.90
2018-05-29T19:39:53.825Z,7.00
2018-05-29T19:42:22.703Z,4.93
2018-05-29T19:44:51.645Z,11.80
2018-05-29T19:47:20.288Z,7.37
2018-05-29T19:49:49.073Z,4.80
2018-05-29T19:52:17.909Z,4.30
2018-05-29T19:54:46.612Z,4.87
2018-05-29T19:57:15.525Z,4.93
2018-05-29T19:59:44.224Z,8.97
2018-05-29T20:02:13.932Z,4.67
2018-05-29T20:04:42.824Z,4.40
2018-05-29T20:07:11.506Z,4.43
2018-05-29T20:09:40.341Z,5.23
2018-05-29T20:12:09.422Z,4.20
2018-05-29T20:14:38.099Z,4.30
2018-05-29T20:17:06.942Z,4.80
2018-05-29T20:19:35.877Z,5.10
2018-05-29T20:22:05.009Z,7.63
2018-05-29T20:24:33.753Z,5.33
2018-05-29T20:27:02.765Z,4.90
2018-05-29T20:29:31.498Z,6.90
2018-05-29T20:32:00.344Z,7.10
2018-05-29T20:34:29.301Z,5.73
2018-05-29T20:36:58.040Z,8.50
2018-05-29T20:39:27.020Z,5.53
2018-05-29T20:41:55.724Z,10.43
2018-05-29T20:44:24.396Z,22.03
2018-05-29T20:46:53.588Z,9.57
2018-05-29T20:49:22.332Z,5.60
2018-05-29T20:51:51.193Z,6.27
2018-05-29T20:54:19.931Z,5.17
2018-05-29T20:56:48.772Z,5.20
2018-05-29T20:59:17.608Z,8.40
2018-05-29T21:01:46.596Z,4.37
2018-05-29T21:04:15.501Z,5.53
2018-05-29T21:06:44.451Z,3.97
2018-05-29T21:09:13.230Z,5.00
2018-05-29T21:11:42.070Z,4.80
2018-05-29T21:14:10.953Z,4.93
2018-05-29T21:16:39.777Z,5.10
2018-05-29T21:19:08.537Z,5.20
2018-05-29T21:21:37.287Z,5.27
2018-05-29T21:24:06.165Z,4.30
2018-05-29T21:26:34.895Z,4.70
2018-05-29T21:29:03.760Z,5.43
2018-05-29T21:31:32.584Z,5.30
2018-05-29T21:34:01.381Z,6.33
2018-05-29T21:36:30.332Z,6.27
2018-05-29T21:38:59.193Z,6.30
2018-05-29T21:41:28.105Z,6.23
2018-05-29T21:43:56.950Z,6.70
2018-05-29T21:46:25.842Z,6.13
2018-05-29T21:48:54.759Z,5.50
2018-05-29T21:51:23.661Z,4.90
2018-05-29T21:53:52.404Z,4.53
2018-05-29T21:56:21.310Z,4.47
2018-05-29T21:58:51.071Z,4.87
2018-05-29T22:01:20.171Z,5.03
2018-05-29T22:03:49.256Z,5.90
2018-05-29T22:06:17.960Z,4.50
2018-05-29T22:08:46.662Z,4.90
2018-05-29T22:11:15.411Z,4.67
2018-05-29T22:13:44.063Z,4.70
2018-05-29T22:16:13.049Z,4.77
2018-05-29T22:18:42.434Z,5.23
2018-05-29T22:21:11.283Z,5.20
2018-05-29T22:23:40.033Z,5.27
2018-05-29T22:26:08.816Z,5.30
2018-05-29T22:28:37.553Z,5.70
2018-05-29T22:31:06.455Z,5.63
2018-05-29T22:33:35.340Z,5.80
2018-05-29T22:36:04.030Z,5.70
2018-05-29T22:38:33.133Z,5.57
2018-05-29T22:41:01.991Z,5.70
2018-05-29T22:43:30.955Z,6.07
2018-05-29T22:45:59.869Z,5.47
2018-05-29T22:48:28.740Z,6.10
2018-05-29T22:50:57.691Z,6.07
2018-05-29T22:53:26.532Z,5.50
2018-05-29T22:55:55.211Z,5.80
2018-05-29T22:58:23.970Z,5.40
2018-05-29T23:00:52.728Z,5.03
2018-05-29T23:03:21.784Z,5.80
2018-05-29T23:05:51.332Z,5.73
2018-05-29T23:08:20.208Z,4.80
2018-05-29T23:10:49.696Z,5.40
2018-05-29T23:13:18.839Z,4.53
2018-05-29T23:15:47.834Z,5.10
2018-05-29T23:18:16.636Z,5.53
2018-05-29T23:20:45.804Z,5.80
2018-05-29T23:23:15.122Z,5.00
2018-05-29T23:25:44.173Z,4.57
2018-05-29T23:28:13.312Z,4.67
2018-05-29T23:30:42.117Z,4.97
2018-05-29T23:33:11.147Z,4.33
2018-05-29T23:35:40.065Z,4.60
2018-05-29T23:38:09.172Z,3.97
2018-05-29T23:40:38.172Z,4.23
2018-05-29T23:43:07.220Z,4.40
2018-05-29T23:45:36.291Z,4.50
2018-05-29T23:48:05.185Z,5.30
2018-05-29T23:50:34.033Z,5.10
2018-05-29T23:53:03.067Z,4.90
2018-05-29T23:55:32.029Z,6.20
2018-05-29T23:58:00.870Z,6.40
